createdAt,value
2018-06-04T00:00:53.628Z,14.00
2018-06-04T00:03:21.803Z,13.87
2018-06-04T00:05:49.971Z,13.30
2018-06-04T00:08:18.179Z,13.87
2018-06-04T00:10:46.341Z,16.00
2018-06-04T00:13:14.622Z,15.20
2018-06-04T00:15:42.915Z,14.57
2018-06-04T00:18:11.118Z,14.43
2018-06-04T00:20:39.193Z,13.03
2018-06-04T00:23:07.341Z,14.30
2018-06-04T00:25:35.515Z,14.83
2018-06-04T00:28:03.666Z,13.90
2018-06-04T00:30:31.800Z,13.73
2018-06-04T00:32:59.973Z,13.80
2018-06-04T00:35:28.173Z,14.27
2018-06-04T00:37:56.316Z,15.20
2018-06-04T00:40:24.505Z,17.07
2018-06-04T00:42:52.811Z,16.80
2018-06-04T00:45:21.012Z,14.83
2018-06-04T00:47:49.236Z,15.30
2018-06-04T00:50:17.689Z,15.30
2018-06-04T00:52:45.838Z,14.17
2018-06-04T00:55:14.096Z,15.47
2018-06-04T00:57:42.319Z,13.97
2018-06-04T01:00:10.492Z,14.80
2018-06-04T01:02:38.749Z,15.40
2018-06-04T01:05:06.915Z,14.90
2018-06-04T01:07:35.177Z,15.07
2018-06-04T01:10:03.361Z,15.27
2018-06-04T01:12:31.674Z,14.90
2018-06-04T01:14:59.921Z,13.83
2018-06-04T01:17:28.093Z,15.97
2018-06-04T01:19:56.347Z,15.60
2018-06-04T01:22:24.625Z,16.80
2018-06-04T01:24:52.954Z,17.40
2018-06-04T01:27:21.181Z,16.90
2018-06-04T01:29:49.353Z,19.57
2018-06-04T01:32:17.591Z,16.97
2018-06-04T01:34:45.787Z,19.70
2018-06-04T01:37:14.139Z,21.00
2018-06-04T01:39:42.302Z,21.87
2018-06-04T01:42:10.494Z,19.90
2018-06-04T01:44:38.886Z,19.77
2018-06-04T01:47:06.936Z,19.50
2018-06-04T01:49:35.071Z,20.87
2018-06-04T01:52:03.441Z,18.90
2018-06-04T01:54:31.574Z,19.60
2018-06-04T01:56:59.692Z,22.03
2018-06-04T01:59:27.867Z,20.20
2018-06-04T02:01:56.400Z,20.00
2018-06-04T02:04:24.534Z,19.27
2018-06-04T02:06:52.643Z,21.57
2018-06-04T02:09:21.756Z,20.50
2018-06-04T02:11:49.865Z,20.17
2018-06-04T02:14:18.278Z,19.67
2018-06-04T02:16:47.249Z,20.40
2018-06-04T02:19:15.179Z,18.77
2018-06-04T02:21:43.489Z,20.40
2018-06-04T02:24:11.612Z,20.40
2018-06-04T02:26:39.788Z,18.57
2018-06-04T02:29:07.967Z,17.97
2018-06-04T02:31:36.224Z,20.87
2018-06-04T02:34:04.319Z,21.20
2018-06-04T02:36:33.375Z,18.97
2018-06-04T02:39:01.520Z,19.27
2018-06-04T02:41:29.663Z,18.70
2018-06-04T02:43:57.882Z,19.33
2018-06-04T02:46:26.072Z,19.13
2018-06-04T02:48:54.420Z,18.90
2018-06-04T02:51:22.583Z,18.50
2018-06-04T02:53:50.778Z,18.97
2018-06-04T02:56:19.114Z,19.00
2018-06-04T02:58:47.289Z,16.73
2018-06-04T03:01:15.584Z,17.50
2018-06-04T03:03:43.843Z,18.50
2018-06-04T03:06:12.120Z,18.47
2018-06-04T03:08:40.699Z,20.00
2018-06-04T03:11:08.831Z,19.33
2018-06-04T03:13:37.009Z,18.37
2018-06-04T03:16:05.400Z,18.37
2018-06-04T03:18:33.556Z,18.10
2018-06-04T03:21:01.693Z,18.80
2018-06-04T03:23:29.881Z,17.77
2018-06-04T03:25:58.144Z,19.67
2018-06-04T03:28:26.339Z,19.67
2018-06-04T03:30:55.022Z,19.10
2018-06-04T03:33:23.240Z,18.83
2018-06-04T03:35:51.470Z,20.43
2018-06-04T03:38:19.630Z,18.23
2018-06-04T03:40:47.824Z,19.17
2018-06-04T03:43:16.252Z,19.67
2018-06-04T03:45:44.906Z,18.90
2018-06-04T03:48:14.188Z,18.90
2018-06-04T03:50:42.345Z,19.47
2018-06-04T03:53:10.478Z,20.90
2018-06-04T03:55:38.720Z,18.40
2018-06-04T03:58:07.068Z,20.10
2018-06-04T04:00:35.353Z,20.40
2018-06-04T04:03:03.475Z,18.17
2018-06-04T04:05:31.820Z,18.70
2018-06-04T04:07:59.970Z,22.10
2018-06-04T04:10:28.800Z,18.27
2018-06-04T04:12:57.342Z,18.73
2018-06-04T04:15:25.690Z,19.53
2018-06-04T04:17:53.846Z,18.90
2018-06-04T04:20:21.991Z,19.07
2018-06-04T04:22:50.099Z,18.90
2018-06-04T04:25:18.300Z,18.23
2018-06-04T04:27:46.419Z,19.53
2018-06-04T04:30:14.546Z,20.00
2018-06-04T04:35:17.269Z,20.17
2018-06-04T04:37:45.497Z,20.47
2018-06-04T04:40:13.586Z,19.60
2018-06-04T04:42:41.712Z,19.50
2018-06-04T04:45:09.834Z,18.97
2018-06-04T04:47:41.583Z,19.50
2018-06-04T04:50:09.741Z,17.97
2018-06-04T04:52:37.875Z,17.10
2018-06-04T04:55:06.137Z,17.13
2018-06-04T04:57:34.382Z,16.97
2018-06-04T05:00:02.521Z,15.53
2018-06-04T05:02:30.696Z,17.00
2018-06-04T05:04:58.870Z,15.70
2018-06-04T05:07:27.004Z,15.43
2018-06-04T05:09:55.168Z,15.80
2018-06-04T05:12:23.304Z,15.50
2018-06-04T05:14:51.534Z,13.47
2018-06-04T05:17:19.881Z,13.60
2018-06-04T05:19:48.043Z,13.30
2018-06-04T05:22:16.420Z,12.90
2018-06-04T05:24:44.597Z,11.43
2018-06-04T05:27:16.383Z,12.17
2018-06-04T05:29:44.522Z,11.60
2018-06-04T05:32:12.619Z,12.03
2018-06-04T05:34:40.893Z,12.40
2018-06-04T05:37:09.310Z,11.30
2018-06-04T05:39:37.429Z,11.70
2018-06-04T05:42:05.615Z,11.43
2018-06-04T05:44:33.745Z,12.60
2018-06-04T05:47:01.874Z,13.00
2018-06-04T05:49:29.996Z,12.70
2018-06-04T05:51:58.410Z,12.73
2018-06-04T05:54:26.641Z,11.53
2018-06-04T05:56:54.811Z,11.70
2018-06-04T05:59:22.996Z,11.10
2018-06-04T06:01:51.146Z,12.40
2018-06-04T06:04:20.153Z,12.00
2018-06-04T06:06:48.371Z,11.40
2018-06-04T06:09:16.678Z,11.40
2018-06-04T06:11:44.851Z,11.07
2018-06-04T06:14:13.051Z,13.00
2018-06-04T06:16:41.202Z,11.70
2018-06-04T06:19:09.342Z,11.50
2018-06-04T06:21:37.457Z,11.40
2018-06-04T06:24:05.806Z,9.93
2018-06-04T06:26:33.997Z,10.30
2018-06-04T06:29:02.170Z,11.00
2018-06-04T06:31:30.343Z,10.77
2018-06-04T06:33:58.589Z,12.10
2018-06-04T06:36:26.695Z,10.10
2018-06-04T06:38:54.839Z,11.43
2018-06-04T06:41:22.809Z,11.03
2018-06-04T06:43:50.939Z,8.57
2018-06-04T06:46:19.054Z,10.70
2018-06-04T06:48:47.181Z,10.90
2018-06-04T06:51:15.306Z,11.10
2018-06-04T06:53:43.481Z,10.47
2018-06-04T06:56:11.643Z,9.50
2018-06-04T06:58:39.861Z,9.20
2018-06-04T07:01:08.071Z,9.80
2018-06-04T07:03:36.499Z,10.43
2018-06-04T07:06:04.626Z,9.63
2018-06-04T07:08:32.820Z,9.40
2018-06-04T07:11:01.206Z,8.60
2018-06-04T07:13:29.370Z,8.93
2018-06-04T07:15:57.623Z,7.83
2018-06-04T07:18:25.856Z,9.57
2018-06-04T07:20:54.036Z,9.37
2018-06-04T07:23:22.165Z,8.70
2018-06-04T07:25:52.295Z,8.97
2018-06-04T07:28:20.458Z,8.20
2018-06-04T07:30:48.580Z,9.03
2018-06-04T07:33:18.239Z,7.60
2018-06-04T07:35:46.382Z,8.17
2018-06-04T07:38:14.524Z,8.33
2018-06-04T07:40:42.814Z,7.50
2018-06-04T07:43:10.974Z,8.30
2018-06-04T07:45:39.096Z,8.10
2018-06-04T07:48:07.285Z,9.40
2018-06-04T07:50:35.416Z,8.70
2018-06-04T07:53:03.717Z,8.60
2018-06-04T07:55:31.848Z,9.70
2018-06-04T07:58:00.164Z,8.07
2018-06-04T08:00:29.778Z,11.30
2018-06-04T08:02:57.949Z,8.43
2018-06-04T08:05:26.300Z,10.10
2018-06-04T08:07:54.457Z,10.20
2018-06-04T08:10:22.632Z,8.97
2018-06-04T08:12:51.952Z,10.30
2018-06-04T08:15:20.190Z,9.40
2018-06-04T08:17:49.649Z,9.67
2018-06-04T08:20:17.840Z,8.33
2018-06-04T08:22:46.104Z,8.93
2018-06-04T08:25:14.680Z,7.57
2018-06-04T08:27:43.426Z,8.63
2018-06-04T08:30:11.624Z,8.47
2018-06-04T08:32:39.828Z,9.27
2018-06-04T08:35:08.525Z,11.47
2018-06-04T08:37:36.657Z,9.70
2018-06-04T08:40:04.819Z,10.70
2018-06-04T08:42:32.942Z,10.10
2018-06-04T08:45:01.290Z,11.90
2018-06-04T08:47:29.452Z,9.63
2018-06-04T08:49:57.683Z,9.57
2018-06-04T08:52:27.419Z,8.17
2018-06-04T08:54:56.536Z,8.23
2018-06-04T08:57:25.163Z,9.20
2018-06-04T08:59:53.337Z,8.63
2018-06-04T09:02:21.468Z,10.77
2018-06-04T09:04:49.657Z,9.00
2018-06-04T09:07:19.146Z,7.90
2018-06-04T09:09:48.731Z,8.93
2018-06-04T09:12:16.853Z,9.17
2018-06-04T09:14:44.818Z,9.33
2018-06-04T09:17:12.979Z,9.53
2018-06-04T09:19:41.595Z,7.73
2018-06-04T09:22:09.762Z,9.70
2018-06-04T09:24:37.915Z,9.87
2018-06-04T09:27:06.176Z,8.93
2018-06-04T09:29:34.917Z,9.40
2018-06-04T09:32:03.116Z,9.77
2018-06-04T09:34:32.017Z,6.77
2018-06-04T09:37:00.369Z,8.40
2018-06-04T09:39:29.585Z,10.17
2018-06-04T09:41:59.037Z,11.23
2018-06-04T09:44:27.209Z,10.03
2018-06-04T09:46:55.339Z,10.13
2018-06-04T09:49:23.703Z,10.97
2018-06-04T09:51:52.989Z,8.90
2018-06-04T09:54:21.099Z,9.43
2018-06-04T09:56:49.395Z,8.73
2018-06-04T09:59:17.581Z,9.80
2018-06-04T10:01:45.616Z,8.50
2018-06-04T10:04:15.414Z,10.77
2018-06-04T10:06:43.550Z,9.60
2018-06-04T10:09:11.846Z,9.27
2018-06-04T10:11:40.571Z,8.97
2018-06-04T10:14:09.007Z,8.17
2018-06-04T10:16:37.169Z,8.27
2018-06-04T10:19:05.312Z,8.90
2018-06-04T10:21:33.491Z,6.70
2018-06-04T10:24:01.771Z,8.40
2018-06-04T10:26:29.941Z,7.90
2018-06-04T10:28:58.111Z,10.00
2018-06-04T10:31:26.309Z,9.00
2018-06-04T10:33:54.420Z,8.47
2018-06-04T10:36:23.551Z,7.10
2018-06-04T10:38:51.753Z,8.30
2018-06-04T10:41:20.025Z,7.83
2018-06-04T10:43:48.244Z,8.20
2018-06-04T10:46:16.409Z,9.33
2018-06-04T10:48:44.523Z,8.90
2018-06-04T10:51:13.223Z,7.77
2018-06-04T10:53:41.421Z,8.27
2018-06-04T10:56:09.576Z,9.57
2018-06-04T10:58:37.772Z,8.17
2018-06-04T11:01:05.966Z,8.47
2018-06-04T11:03:34.207Z,7.30
2018-06-04T11:06:02.498Z,7.17
2018-06-04T11:08:30.727Z,7.47
2018-06-04T11:10:58.889Z,8.10
2018-06-04T11:13:27.011Z,7.03
2018-06-04T11:15:56.519Z,7.67
2018-06-04T11:18:24.693Z,7.57
2018-06-04T11:20:53.022Z,8.93
2018-06-04T11:23:21.440Z,7.10
2018-06-04T11:25:49.694Z,8.17
2018-06-04T11:28:17.794Z,8.10
2018-06-04T11:30:46.513Z,7.67
2018-06-04T11:33:14.723Z,7.33
2018-06-04T11:35:43.022Z,7.97
2018-06-04T11:38:11.516Z,7.70
2018-06-04T11:40:39.639Z,6.43
2018-06-04T11:43:07.724Z,7.30
2018-06-04T11:45:36.104Z,7.57
2018-06-04T11:48:04.098Z,6.47
2018-06-04T11:50:32.256Z,7.43
2018-06-04T11:53:00.398Z,7.87
2018-06-04T11:55:29.941Z,7.20
2018-06-04T11:57:58.112Z,6.70
2018-06-04T12:00:26.816Z,6.10
2018-06-04T12:02:54.938Z,6.10
2018-06-04T12:05:23.044Z,6.07
2018-06-04T12:07:51.200Z,6.97
2018-06-04T12:10:19.352Z,7.40
2018-06-04T12:12:47.692Z,6.27
2018-06-04T12:15:15.919Z,6.63
2018-06-04T12:17:44.197Z,6.87
2018-06-04T12:20:12.351Z,7.70
2018-06-04T12:22:40.767Z,6.40
2018-06-04T12:25:08.849Z,7.20
2018-06-04T12:27:37.199Z,7.37
2018-06-04T12:30:05.416Z,6.43
2018-06-04T12:32:33.651Z,6.57
2018-06-04T12:35:04.130Z,6.93
2018-06-04T12:37:32.248Z,8.40
2018-06-04T12:40:00.418Z,6.53
2018-06-04T12:42:28.614Z,6.50
2018-06-04T12:44:56.751Z,6.50
2018-06-04T12:47:24.905Z,7.20
2018-06-04T12:49:53.033Z,5.60
2018-06-04T12:52:21.130Z,5.70
2018-06-04T12:54:49.223Z,5.80
2018-06-04T12:57:17.945Z,5.90
2018-06-04T12:59:46.121Z,5.77
2018-06-04T13:02:14.292Z,5.77
2018-06-04T13:04:42.436Z,6.03
2018-06-04T13:07:10.568Z,6.30
2018-06-04T13:09:38.706Z,6.70
2018-06-04T13:12:06.810Z,6.50
2018-06-04T13:14:34.977Z,6.67
2018-06-04T13:17:03.204Z,6.90
2018-06-04T13:19:31.326Z,7.00
2018-06-04T13:22:00.358Z,7.13
2018-06-04T13:24:30.038Z,6.83
2018-06-04T13:26:58.192Z,7.60
2018-06-04T13:29:26.294Z,6.83
2018-06-04T13:31:55.324Z,7.73
2018-06-04T13:34:23.392Z,7.00
2018-06-04T13:36:51.547Z,6.30
2018-06-04T13:39:23.389Z,6.90
2018-06-04T13:41:52.585Z,5.33
2018-06-04T13:44:20.758Z,6.00
2018-06-04T13:46:49.765Z,6.70
2018-06-04T13:49:17.882Z,6.53
2018-06-04T13:51:46.178Z,6.60
2018-06-04T13:54:14.408Z,6.40
2018-06-04T13:56:42.585Z,6.00
2018-06-04T13:59:10.806Z,8.93
2018-06-04T14:01:39.099Z,7.30
2018-06-04T14:04:08.808Z,6.70
2018-06-04T14:06:38.890Z,6.17
2018-06-04T14:09:08.340Z,5.30
2018-06-04T14:11:36.494Z,6.20
2018-06-04T14:14:06.081Z,6.43
2018-06-04T14:16:34.210Z,6.50
2018-06-04T14:19:03.668Z,5.97
2018-06-04T14:21:31.900Z,7.23
2018-06-04T14:24:00.122Z,5.90
2018-06-04T14:26:28.191Z,6.43
2018-06-04T14:28:56.339Z,5.30
2018-06-04T14:31:24.498Z,5.80
2018-06-04T14:33:52.633Z,6.53
2018-06-04T14:36:21.765Z,6.37
2018-06-04T14:38:50.155Z,6.50
2018-06-04T14:41:18.651Z,6.40
2018-06-04T14:43:46.758Z,6.33
2018-06-04T14:46:14.795Z,6.40
2018-06-04T14:48:42.971Z,7.73
2018-06-04T14:51:12.719Z,6.10
2018-06-04T14:53:40.889Z,6.10
2018-06-04T14:56:09.000Z,6.70
2018-06-04T14:58:37.133Z,6.50
2018-06-04T15:01:05.277Z,6.00
2018-06-04T15:03:33.445Z,7.63
2018-06-04T15:06:02.112Z,7.27
2018-06-04T15:08:30.499Z,9.33
2018-06-04T15:10:59.823Z,6.67
2018-06-04T15:13:28.119Z,8.90
2018-06-04T15:15:56.302Z,8.03
2018-06-04T15:18:25.556Z,6.63
2018-06-04T15:20:54.309Z,7.50
2018-06-04T15:23:22.433Z,7.63
2018-06-04T15:25:50.559Z,6.60
2018-06-04T15:28:18.704Z,7.23
2018-06-04T15:30:53.682Z,7.43
2018-06-04T15:33:23.031Z,7.07
2018-06-04T15:35:51.216Z,6.97
2018-06-04T15:38:19.858Z,7.60
2018-06-04T15:40:48.042Z,7.37
2018-06-04T15:43:16.268Z,5.90
2018-06-04T15:45:44.786Z,7.60
2018-06-04T15:48:14.287Z,6.30
2018-06-04T15:50:42.664Z,7.00
2018-06-04T15:53:11.316Z,6.63
2018-06-04T15:55:40.892Z,8.20
2018-06-04T15:58:10.499Z,7.43
2018-06-04T16:00:39.427Z,7.30
2018-06-04T16:03:07.546Z,6.90
2018-06-04T16:05:37.133Z,6.13
2018-06-04T16:08:07.088Z,7.60
2018-06-04T16:10:37.379Z,7.50
2018-06-04T16:13:06.370Z,7.37
2018-06-04T16:15:35.373Z,6.87
2018-06-04T16:18:03.499Z,7.43
2018-06-04T16:20:31.639Z,7.50
2018-06-04T16:22:59.776Z,8.47
2018-06-04T16:25:31.112Z,8.50
2018-06-04T16:27:59.216Z,8.00
2018-06-04T16:30:27.339Z,8.23
2018-06-04T16:32:55.476Z,7.90
2018-06-04T16:35:23.656Z,8.77
2018-06-04T16:37:51.789Z,9.10
2018-06-04T16:40:19.966Z,9.10
2018-06-04T16:42:49.068Z,8.13
2018-06-04T16:45:17.206Z,9.10
2018-06-04T16:47:45.455Z,9.13
2018-06-04T16:50:13.616Z,8.37
2018-06-04T16:52:42.330Z,8.13
2018-06-04T16:55:10.313Z,8.43
2018-06-04T16:57:38.766Z,8.10
2018-06-04T17:00:08.210Z,8.30
2018-06-04T17:02:42.543Z,7.30
2018-06-04T17:05:10.681Z,8.90
2018-06-04T17:07:38.745Z,7.73
2018-06-04T17:10:07.174Z,6.87
2018-06-04T17:12:35.864Z,6.30
2018-06-04T17:15:05.214Z,7.23
2018-06-04T17:17:33.360Z,7.77
2018-06-04T17:20:02.151Z,7.03
2018-06-04T17:22:30.273Z,6.47
2018-06-04T17:24:59.676Z,6.80
2018-06-04T17:27:27.906Z,6.00
2018-06-04T17:29:56.040Z,6.40
2018-06-04T17:32:23.946Z,5.97
2018-06-04T17:34:52.082Z,5.63
2018-06-04T17:37:20.220Z,4.83
2018-06-04T17:39:48.857Z,5.60
2018-06-04T17:42:19.151Z,6.27
2018-06-04T17:44:48.888Z,5.37
2018-06-04T17:47:17.039Z,4.87
2018-06-04T17:49:45.720Z,4.13
2018-06-04T17:52:13.969Z,5.60
2018-06-04T17:54:42.275Z,5.60
2018-06-04T17:57:11.806Z,3.83
2018-06-04T17:59:39.990Z,4.37
2018-06-04T18:02:08.388Z,4.97
2018-06-04T18:04:36.659Z,4.10
2018-06-04T18:07:04.780Z,3.20
2018-06-04T18:09:32.950Z,4.60
2018-06-04T18:12:01.327Z,4.00
2018-06-04T18:14:29.573Z,4.20
2018-06-04T18:16:58.267Z,4.63
2018-06-04T18:19:26.430Z,4.13
2018-06-04T18:21:55.924Z,4.20
2018-06-04T18:24:24.127Z,4.43
2018-06-04T18:26:52.433Z,3.80
2018-06-04T18:29:20.594Z,4.23
2018-06-04T18:31:48.904Z,4.30
2018-06-04T18:34:18.110Z,4.43
2018-06-04T18:36:46.036Z,4.53
2018-06-04T18:39:14.299Z,4.30
2018-06-04T18:41:43.170Z,4.13
2018-06-04T18:44:12.341Z,4.93
2018-06-04T18:46:41.644Z,4.93
2018-06-04T18:49:12.962Z,4.67
2018-06-04T18:51:42.286Z,4.90
2018-06-04T18:54:10.389Z,5.47
2018-06-04T18:56:38.432Z,4.90
2018-06-04T18:59:06.582Z,6.73
2018-06-04T19:01:34.883Z,5.40
2018-06-04T19:04:03.102Z,5.00
2018-06-04T19:06:31.287Z,5.33
2018-06-04T19:08:59.445Z,5.70
2018-06-04T19:11:27.641Z,5.30
2018-06-04T19:13:55.967Z,4.40
2018-06-04T19:16:24.332Z,5.20
2018-06-04T19:18:52.617Z,5.10
2018-06-04T19:21:20.785Z,5.90
2018-06-04T19:23:48.948Z,5.60
2018-06-04T19:26:17.097Z,5.60
2018-06-04T19:28:45.315Z,6.07
2018-06-04T19:31:13.509Z,6.30
2018-06-04T19:33:43.187Z,6.73
2018-06-04T19:36:11.492Z,6.80
2018-06-04T19:38:39.619Z,7.30
2018-06-04T19:41:08.063Z,7.23
2018-06-04T19:43:36.153Z,7.33
2018-06-04T19:46:04.297Z,7.27
2018-06-04T19:48:32.446Z,7.03
2018-06-04T19:51:00.562Z,8.40
2018-06-04T19:53:28.542Z,8.90
2018-06-04T19:55:56.732Z,8.20
2018-06-04T19:58:24.888Z,8.33
2018-06-04T20:00:53.191Z,8.80
2018-06-04T20:03:22.301Z,8.47
2018-06-04T20:05:50.399Z,9.90
2018-06-04T20:08:18.540Z,10.17
2018-06-04T20:10:46.674Z,9.40
2018-06-04T20:13:14.855Z,9.70
2018-06-04T20:15:43.041Z,9.43
2018-06-04T20:18:11.417Z,9.20
2018-06-04T20:20:39.584Z,10.17
2018-06-04T20:23:07.728Z,9.60
2018-06-04T20:25:36.043Z,10.40
2018-06-04T20:28:04.312Z,9.37
2018-06-04T20:30:33.692Z,10.40
2018-06-04T20:33:01.836Z,10.20
2018-06-04T20:35:30.533Z,10.53
2018-06-04T20:37:58.699Z,11.33
2018-06-04T20:40:26.643Z,10.30
2018-06-04T20:42:54.782Z,10.90
2018-06-04T20:45:23.065Z,11.03
2018-06-04T20:47:51.264Z,10.50
2018-06-04T20:50:21.633Z,11.10
2018-06-04T20:52:49.807Z,10.43
2018-06-04T20:55:19.823Z,10.60
2018-06-04T20:57:48.180Z,9.97
2018-06-04T21:00:16.300Z,10.60
2018-06-04T21:02:44.200Z,10.37
2018-06-04T21:05:12.372Z,10.47
2018-06-04T21:07:42.049Z,10.00
2018-06-04T21:10:09.996Z,11.00
2018-06-04T21:12:38.123Z,10.13
2018-06-04T21:15:06.267Z,12.50
2018-06-04T21:17:34.556Z,10.80
2018-06-04T21:20:03.519Z,10.00
2018-06-04T21:22:31.702Z,13.97
2018-06-04T21:24:59.840Z,9.50
2018-06-04T21:27:28.075Z,11.50
2018-06-04T21:29:56.363Z,10.10
2018-06-04T21:32:24.853Z,9.67
2018-06-04T21:34:53.018Z,10.93
2018-06-04T21:37:21.181Z,10.17
2018-06-04T21:39:50.565Z,10.23
2018-06-04T21:42:18.896Z,10.00
2018-06-04T21:44:47.150Z,9.87
2018-06-04T21:47:15.403Z,10.77
2018-06-04T21:49:43.577Z,9.43
2018-06-04T21:52:12.849Z,10.97
2018-06-04T21:54:45.170Z,11.07
2018-06-04T21:57:13.342Z,10.63
2018-06-04T21:59:41.480Z,10.17
2018-06-04T22:02:09.668Z,10.60
2018-06-04T22:04:38.159Z,9.77
2018-06-04T22:07:06.300Z,10.10
2018-06-04T22:09:34.478Z,10.40
2018-06-04T22:12:02.638Z,10.20
2018-06-04T22:14:30.980Z,11.63
2018-06-04T22:16:59.412Z,10.63
2018-06-04T22:19:28.318Z,11.47
2018-06-04T22:24:30.726Z,11.23
2018-06-04T22:26:58.862Z,9.60
2018-06-04T22:29:26.986Z,10.53
2018-06-04T22:31:55.169Z,11.70
2018-06-04T22:34:23.343Z,10.73
2018-06-04T22:36:51.500Z,11.10
2018-06-04T22:39:19.710Z,10.97
2018-06-04T22:41:47.862Z,10.40
2018-06-04T22:44:15.980Z,10.90
2018-06-04T22:46:43.884Z,9.80
2018-06-04T22:49:11.991Z,9.73
2018-06-04T22:51:40.166Z,10.17
2018-06-04T22:54:09.021Z,10.00
2018-06-04T22:56:38.001Z,11.10
2018-06-04T22:59:06.161Z,10.70
2018-06-04T23:01:34.331Z,11.20
2018-06-04T23:04:02.491Z,10.07
2018-06-04T23:06:30.582Z,11.20
2018-06-04T23:08:58.675Z,10.73
2018-06-04T23:11:26.889Z,10.67
2018-06-04T23:13:55.215Z,11.83
2018-06-04T23:16:23.355Z,11.67
2018-06-04T23:18:52.292Z,11.10
2018-06-04T23:21:20.412Z,11.53
2018-06-04T23:23:48.714Z,12.60
2018-06-04T23:26:17.001Z,12.10
2018-06-04T23:28:45.123Z,12.07
2018-06-04T23:31:13.223Z,12.70
2018-06-04T23:33:43.051Z,12.70
2018-06-04T23:36:11.431Z,13.40
2018-06-04T23:38:40.360Z,13.33
2018-06-04T23:41:08.725Z,14.97
2018-06-04T23:43:37.045Z,13.73
2018-06-04T23:46:05.329Z,13.47
2018-06-04T23:48:33.475Z,14.50
2018-06-04T23:51:01.603Z,13.30
2018-06-04T23:53:31.387Z,13.73
2018-06-04T23:55:59.542Z,13.70
2018-06-04T23:58:27.883Z,13.80
